Список аэропортов
Фактическая погода:

24 июня, 23:20
Температура: +15°C (+13.8*)
Ветер: северный 5 м/с
Давление: *756 мм
разорв. обл.
1200 м
Время (МСК)Темп. СВетерВлажностьДавлениеОблачностьОсадки
21:00+16СЗ, 4 м/с65%1008 гПаоблачно
22:00+16С, 3 м/с65%1008 гПаоблачно
23:00+16С, 3 м/с64%1008 гПаоблачно
25 июня
00:00+15С, 3 м/с72%1008 гПаоблачносл. дождь
01:00+14С, 3 м/с77%1008 гПаоблачносл. дождь
02:00+14С, 3 м/с90%1008 гПаоблачнодождь
03:00+13С, 3 м/с95%1008 гПаоблачнодождь
04:00+13С, 2 м/с96%1008 гПаоблачно
05:00+13С, 2 м/с97%1008 гПаоблачно
06:00+13СВ, 2 м/с98%1008 гПаоблачно
07:00+13СВ, 1 м/с98%1009 гПаоблачно
08:00+13СВ, 1 м/с98%1009 гПаоблачно
09:00+14СВ, 1 м/с96%1010 гПаоблачно
10:00+15В, 2 м/с91%1011 гПаоблачно
11:00+16В, 2 м/с84%1011 гПаоблачно
12:00+16В, 2 м/с76%1012 гПаоблачно
13:00+16В, 2 м/с78%1012 гПаоблачно
14:00+18ЮВ, 2 м/с70%1013 гПаоблачно
15:00+18ЮВ, 2 м/с68%1014 гПаоблачно
16:00+18ЮВ, 2 м/с66%1014 гПаоблачно
17:00+18ЮВ, 2 м/с65%1015 гПас прояснениями
18:00+18ЮВ, 2 м/с65%1015 гПас прояснениями
19:00+18ЮВ, 2 м/с64%1015 гПаясно
20:00+18Ю, 2 м/с64%1016 гПаясно
21:00+17Ю, 2 м/с67%1016 гПаясно
22:00+15ЮВ, 2 м/с80%1017 гПаясно
23:00+13Ю, 1 м/с95%1018 гПаясно
26 июня
00:00+11Ю, 1 м/с99%1018 гПаясно
01:00+10ЮЗ, 1 м/с100%1018 гПас прояснениями
02:00+9ЮЗ, 1 м/с100%1019 гПаоблачно
03:00+8Ю, 1 м/с100%1019 гПаоблачно
04:00+7Ю, 1 м/с100%1019 гПаоблачно
05:00+7Ю, 1 м/с100%1020 гПаоблачно
06:00+8Штиль 100%1020 гПаоблачно
07:00+11Штиль 96%1020 гПаясно
08:00+15Ю, 1 м/с88%1021 гПаясно
09:00+18Ю, 2 м/с66%1021 гПаясно
10:00+20Ю, 3 м/с56%1021 гПаясно
11:00+21Ю, 3 м/с49%1022 гПаясно
12:00+22Ю, 3 м/с46%1022 гПаясно
13:00+23Ю, 4 м/с44%1022 гПаясно
14:00+23Ю, 4 м/с42%1022 гПаясно
15:00+24Ю, 4 м/с41%1022 гПамалооблачно
16:00+24Ю, 4 м/с41%1021 гПаоблачно
17:00+24Ю, 4 м/с42%1022 гПаоблачно
18:00+24ЮЗ, 3 м/с43%1022 гПаоблачно
19:00+23ЮЗ, 3 м/с44%1022 гПаоблачно
20:00+22ЮЗ, 3 м/с45%1022 гПаоблачно
21:00+21ЮЗ, 2 м/с51%1022 гПаоблачно